M I D A S
Marine Information and Data Acquisition System
Tripno 64 of the Zeeleeuw from 2001-10-29 07:55:50 to 2001-10-29 14:55:00
Back to CruiseResearch ActivitiesStationsMapUnderway DataData graphs

EquipmentUnitsComment
TimeDGPSUTC
LatitudeDGPSDM.mWGS84
LongitudeDGPSDM.mWGS84
HeadingGyrodeg 
SOGDGPSknotsSpeed over ground
COGDGPSdegCourse over ground
DepthEcho soundermeters200 kHz
Missing or incorrect values are displayed as -999
Navigation data collected by the RV Zeeleeuw from 2001-10-29 07:55:50 to 2001-10-29 14:55:00
Time Latitude Longitude Heading SOG COG Depth
2001-10-29 08:09:56 51°13.689 2°55.905 347.2   140.2 -999
2001-10-29 08:10:57 51°13.689 2°55.905 344.2   170.3 -999
2001-10-29 08:11:56 51°13.689 2°55.905 340.8   214.5 -999
2001-10-29 08:12:56 51°13.689 2°55.906 336.5   14.8 -999
2001-10-29 08:13:56 51°13.689 2°55.905 331   331.5 -999
2001-10-29 08:14:57 51°13.688 2°55.904 326.8   144 -999
2001-10-29 08:15:56 51°13.688 2°55.905 19.7   67.7 -999
2001-10-29 08:16:51 51°13.688 2°55.905 139.8   328.8 7
2001-10-29 08:17:52 51°13.688 2°55.905 135.5   109.3 7.3
2001-10-29 08:18:52 51°13.688 2°55.905 131.5   221.9 7.2
2001-10-29 08:19:52 51°13.688 2°55.904 127.5   287 7.3
2001-10-29 08:20:52 51°13.688 2°55.904 124   296.7 7.1
2001-10-29 08:21:52 51°13.688 2°55.905 120.2   297.1 7.4
2001-10-29 08:22:52 51°13.687 2°55.904 117   83.3 7.4
2001-10-29 08:23:51 51°13.687 2°55.905 113.3   342.6 7.4
2001-10-29 08:24:51 51°13.687 2°55.905 110.2   340.1 7.1
2001-10-29 08:25:52 51°13.688 2°55.905 107.2   325.6 7.4
2001-10-29 08:26:52 51°13.688 2°55.906 104.5   325.5 6.9
2001-10-29 08:27:51 51°13.687 2°55.906 101.8   135.8 6.9
2001-10-29 08:28:52 51°13.687 2°55.906 99.3   78.8 7.5
2001-10-29 08:29:52 51°13.687 2°55.906 97.2 0.1 140.6 7.3
2001-10-29 08:30:52 51°13.687 2°55.905 95.3   15.3 7.1
2001-10-29 08:31:52 51°13.687 2°55.906 94.2   147.1 7.6
2001-10-29 08:32:52 51°13.688 2°55.906 91.8   231.1 7.5
2001-10-29 08:34:13 51°13.688 2°55.906 90.2   46.8 6.3
2001-10-29 08:35:13 51°13.688 2°55.906 88.8   103.8 7.6
2001-10-29 08:36:13 51°13.688 2°55.906 87.8   193.5 7.5
2001-10-29 08:37:13 51°13.688 2°55.906 87.7   232 7.6
2001-10-29 08:38:13 51°13.687 2°55.906 86.7   145.4 7.6
2001-10-29 08:39:13 51°13.687 2°55.906 86   152.4 7.7
2001-10-29 08:40:13 51°13.687 2°55.906 85.7   75.4 7.7
2001-10-29 08:41:13 51°13.687 2°55.905 85.7   228.8 7.7
2001-10-29 08:42:13 51°13.687 2°55.906 85.8   17.2 7.2
2001-10-29 08:43:13 51°13.687 2°55.906 86.2   167.8 7.6
2001-10-29 08:44:13 51°13.688 2°55.906 86.5   42 7.9
2001-10-29 08:45:14 51°13.688 2°55.906 85.3   143.8 7.8
2001-10-29 08:46:13 51°13.687 2°55.907 78.7   167.2 7.9
2001-10-29 08:47:13 51°13.685 2°55.905 65.5 0.1 215.9 8.1
2001-10-29 08:48:14 51°13.69 2°55.879 58.5 2 281.5 -999
2001-10-29 08:49:14 51°13.694 2°55.803 46.8 2.9 270.9 -999
2001-10-29 08:50:13 51°13.688 2°55.742 31.3 2 254.6 14.6
2001-10-29 08:51:13 51°13.701 2°55.737 337.2 2.3 14.9 15
2001-10-29 08:52:13 51°13.764 2°55.691 295.7 5.7 328.7 12
2001-10-29 08:53:13 51°13.873 2°55.596 303 8.7 334.2 12.2
2001-10-29 08:54:13 51°14.018 2°55.493 306.5 9.8 336.1 12.5
2001-10-29 08:55:13 51°14.167 2°55.382 302.8 9.8 331.3 12.1
2001-10-29 08:56:13 51°14.289 2°55.213 284.5 9.9 311.4 12.2
2001-10-29 08:57:13 51°14.397 2°55.016 289.7 9.9 318.3 12.1
2001-10-29 08:58:13 51°14.453 2°54.798 245.7 9.2 272.2 12.2
2001-10-29 08:59:13 51°14.44 2°54.544 240.3 9.7 264.3 12.3
2001-10-29 09:00:13 51°14.416 2°54.29 237.5 9.7 259 11.8
2001-10-29 09:01:13 51°14.382 2°54.029 231.5 10.4 253.5 11.6
2001-10-29 09:02:13 51°14.289 2°53.782 222.8 11.3 238.2 11.7
2001-10-29 09:03:13 51°14.19 2°53.522 226.7 11.8 240.5 11.7
2001-10-29 09:04:13 51°14.088 2°53.252 225.7 12 237.9 11.9
2001-10-29 09:05:13 51°13.985 2°52.98 224 12 236 12.2
2001-10-29 09:06:14 51°13.884 2°52.702 228.7 11.9 237.7 12.5
2001-10-29 09:07:13 51°13.784 2°52.435 232.3 12 238.9 12.7
2001-10-29 09:08:13 51°13.684 2°52.162 236 11.9 239.3 12.8
2001-10-29 09:09:13 51°13.581 2°51.893 234.7 11.9 238.5 12.7
2001-10-29 09:10:13 51°13.477 2°51.623 240.5 11.9 242.8 12.9
2001-10-29 09:11:13 51°13.384 2°51.344 240.8 11.9 241.8 13
2001-10-29 09:12:13 51°13.285 2°51.071 236.2 11.9 235.3 13.2
2001-10-29 09:13:14 51°13.185 2°50.793 242.3 11.9 240.2 13.2
2001-10-29 09:14:13 51°13.09 2°50.526 244.5 11.8 242.8 13.3
2001-10-29 09:15:13 51°12.987 2°50.259 246.3 11.9 241.8 13.4
2001-10-29 09:16:13 51°12.884 2°49.991 243.7 11.9 237.7 13.6
2001-10-29 09:17:13 51°12.782 2°49.72 246.8 12 240.4 13.6
2001-10-29 09:18:13 51°12.677 2°49.454 246.5 11.8 238.3 13.7
2001-10-29 09:19:13 51°12.581 2°49.182 249.2 11.8 240.6 13.8
2001-10-29 09:20:14 51°12.478 2°48.911 247 11.8 237.5 13.8
2001-10-29 09:21:13 51°12.377 2°48.649 248.7 11.8 237.9 13.9
2001-10-29 09:22:13 51°12.27 2°48.388 247 11.7 234.7 13.8
2001-10-29 09:23:13 51°12.171 2°48.122 254.7 11.7 243.2 13.8
2001-10-29 09:24:13 51°12.077 2°47.852 254.7 11.7 242 13.9
2001-10-29 09:25:13 51°11.982 2°47.583 257 11.7 244.4 13.8
2001-10-29 09:26:13 51°11.88 2°47.32 253.5 11.6 239.1 13.6
2001-10-29 09:27:14 51°11.786 2°47.042 256.2 11.7 243.4 13.4
2001-10-29 09:28:13 51°11.692 2°46.774 256.2 11.8 241 13.1
2001-10-29 09:29:13 51°11.598 2°46.499 257.2 11.9 242.1 13.4
2001-10-29 09:30:13 51°11.502 2°46.226 254.7 11.8 238.9 13.3
2001-10-29 09:31:13 51°11.408 2°45.951 261.3 11.8 245.2 13.1
2001-10-29 09:32:13 51°11.32 2°45.672 256.7 11.8 241 13
2001-10-29 09:33:13 51°11.223 2°45.4 257.2 11.8 242.1 12.7
2001-10-29 09:34:13 51°11.127 2°45.128 258.8 11.8 243.1 12.4
2001-10-29 09:35:13 51°11.027 2°44.86 250.2 11.7 234.8 12.2
2001-10-29 09:36:13 51°10.928 2°44.591 255.3 11.7 238.8 12
2001-10-29 09:37:13 51°10.829 2°44.325 251.3 11.8 235.8 11.8
2001-10-29 09:38:13 51°10.757 2°44.036 264.3 11.8 251.4 11.7
2001-10-29 09:39:14 51°10.679 2°43.744 262 11.8 246.5 11.7
2001-10-29 09:40:13 51°10.606 2°43.461 259.5 11.7 245 11.6
2001-10-29 09:41:13 51°10.532 2°43.172 261.2 11.8 247.7 11.5
2001-10-29 09:42:14 51°10.458 2°42.877 260.7 11.8 248.6 11.6
2001-10-29 09:43:13 51°10.391 2°42.586 263.8 11.9 252.2 11.6
2001-10-29 09:44:13 51°10.333 2°42.287 266.3 11.8 256.1 11.7
2001-10-29 09:45:13 51°10.263 2°41.996 260.2 11.7 250.1 11.8
2001-10-29 09:46:13 51°10.2 2°41.701 268.5 11.8 258 12
2001-10-29 09:47:13 51°10.13 2°41.409 258.2 11.8 245.4 12.2
2001-10-29 09:48:13 51°10.081 2°41.108 263.5 11.8 254.4 12.1
2001-10-29 09:49:14 51°10.032 2°40.803 264.8 11.7 258.1 12.6
2001-10-29 09:50:13 51°9.977 2°40.511 257.8 11.8 249.2 12.7
2001-10-29 09:51:13 51°9.932 2°40.209 260.8 11.7 254.3 13.1
2001-10-29 09:52:13 51°9.883 2°39.908 260.5 11.8 254.3 13.2
2001-10-29 09:53:14 51°9.815 2°39.61 253.7 11.8 245.6 13.3
2001-10-29 09:54:13 51°9.757 2°39.318 259.3 11.7 251.3 13.4
2001-10-29 09:55:14 51°9.711 2°39.01 261 11.8 255.8 13.8
2001-10-29 09:56:14 51°9.632 2°38.728 244.3 11.7 237.6 13.8
2001-10-29 09:57:14 51°9.58 2°38.438 268.2 11.7 264.9 14.1
2001-10-29 09:58:13 51°9.562 2°38.134 268 11.7 264.5 14.5
2001-10-29 09:59:13 51°9.555 2°37.822 271 11.7 269.2 15.5
2001-10-29 10:00:13 51°9.553 2°37.512 270.7 11.7 269.6 16.9
2001-10-29 10:01:14 51°9.544 2°37.197 265.3 11.8 264.8 18.4
2001-10-29 10:02:13 51°9.513 2°36.897 261.2 11.7 260.5 18.9
2001-10-29 10:03:13 51°9.482 2°36.591 264.8 11.7 263.1 18.6
2001-10-29 10:04:14 51°9.48 2°36.274 268.7 11.8 269.8 19.3
2001-10-29 10:05:14 51°9.474 2°35.96 268.7 11.9 269.3 19.5
2001-10-29 10:06:13 51°9.47 2°35.651 267.7 11.9 269 19.9
2001-10-29 10:07:14 51°9.48 2°35.331 274.5 12 276.8 20.2
2001-10-29 10:08:13 51°9.504 2°35.026 276.2 11.8 280.1 21.2
2001-10-29 10:09:14 51°9.577 2°34.73 292.5 11.9 299.1 22.1
2001-10-29 10:10:13 51°9.692 2°34.473 306.2 12.4 311.6 17.1
2001-10-29 10:11:13 51°9.862 2°34.279 333.5 13.1 337.8 13.5
2001-10-29 10:12:14 51°10.09 2°34.292 14.3 14.1 16.3 13.2
2001-10-29 10:13:13 51°10.278 2°34.506 39.2 14.4 42.7 12
2001-10-29 10:14:14 51°10.474 2°34.732 30.8 14.3 34.7 11.6
2001-10-29 10:15:13 51°10.658 2°34.958 37.5 14.3 40.6 11.8
2001-10-29 10:16:13 51°10.839 2°35.206 35.7 14.4 39.1 11.9
2001-10-29 10:17:14 51°11.03 2°35.446 32.5 14.3 38 11.9
2001-10-29 10:18:13 51°11.203 2°35.707 44.8 14.6 47.3 12.1
2001-10-29 10:19:14 51°11.38 2°35.98 38.3 14.5 41.7 12.3
2001-10-29 10:20:13 51°11.547 2°36.247 37.7 14.1 42.5 12.7
2001-10-29 10:21:13 51°11.726 2°36.501 38.8 14.4 41.4 12.7
2001-10-29 10:22:14 51°11.908 2°36.764 36.8 14.6 41.6 12.9
2001-10-29 10:23:13 51°12.08 2°37.018 40.3 14.3 44.2 13.3
2001-10-29 10:24:13 51°12.265 2°37.267 34.7 14.6 38.5 13.8
2001-10-29 10:25:14 51°12.453 2°37.52 35.5 14.5 39.7 14.6
2001-10-29 10:26:13 51°12.642 2°37.751 36.2 14.6 38.7 15.3
2001-10-29 10:27:13 51°12.828 2°37.998 32.5 14.5 36.1 15.9
2001-10-29 10:28:13 51°13.015 2°38.241 35.7 14.7 40 16.6
2001-10-29 10:29:14 51°13.206 2°38.493 37.2 14.7 39.4 17
2001-10-29 10:30:14 51°13.397 2°38.735 36 14.5 37.9 16.8
2001-10-29 10:31:14 51°13.593 2°38.955 24 14.3 30.8 16.8
2001-10-29 10:32:14 51°13.809 2°39.079 6.8 13.8 13.2 17.2
2001-10-29 10:33:14 51°14.027 2°39.028 330 13 338.4 15.9
2001-10-29 10:34:14 51°14.136 2°38.776 277 11.6 283.3 15.3
2001-10-29 10:35:13 51°14.137 2°38.473 258.3 11.5 261.5 19.2
2001-10-29 10:36:13 51°14.07 2°38.186 249 11.7 249.5 20.6
2001-10-29 10:37:13 51°14.006 2°37.894 246.8 11.6 247.3 18.3
2001-10-29 10:38:14 51°13.93 2°37.606 246.7 11.6 247 21.1
2001-10-29 10:39:14 51°13.85 2°37.325 247 11.7 246.4 22.2
2001-10-29 10:40:14 51°13.768 2°37.042 246.5 11.7 245.2 22.4
2001-10-29 10:41:13 51°13.689 2°36.765 247.5 11.7 245.7 22.2
2001-10-29 10:42:13 51°13.605 2°36.486 246.3 11.6 243.1 21.7
2001-10-29 10:43:13 51°13.523 2°36.21 247.7 11.5 245.3 20.5
2001-10-29 10:44:14 51°13.44 2°35.928 246.8 11.6 244.4 20.2
2001-10-29 10:45:14 51°13.356 2°35.654 245.7 11.6 244 20
2001-10-29 10:46:14 51°13.269 2°35.38 246.5 11.6 243.4 20
2001-10-29 10:47:14 51°13.182 2°35.104 246.5 11.6 244.4 19.7
2001-10-29 10:48:14 51°13.093 2°34.829 245.2 11.6 241.9 20.2
2001-10-29 10:49:13 51°13.007 2°34.558 245.7 11.7 242.6 20.2
2001-10-29 10:50:14 51°12.916 2°34.275 246.5 11.8 243.4 19.9
2001-10-29 10:51:14 51°12.834 2°33.992 248 11.9 245.3 19.5
2001-10-29 10:52:14 51°12.75 2°33.708 248 11.8 244.4 18.6
2001-10-29 10:53:14 51°12.667 2°33.425 248.5 11.8 245.8 17.5
2001-10-29 10:54:14 51°12.583 2°33.141 248.2 11.8 244.9 17.6
2001-10-29 10:55:14 51°12.499 2°32.859 247.5 11.8 244.5 18.3
2001-10-29 10:56:14 51°12.415 2°32.577 248 11.7 244.1 19.2
2001-10-29 10:57:13 51°12.333 2°32.3 247.8 11.7 244.3 19.8
2001-10-29 10:58:14 51°12.248 2°32.015 248.3 11.7 244.8 21.3
2001-10-29 10:59:13 51°12.165 2°31.742 248.2 11.7 244.1 22.1
2001-10-29 11:00:14 51°12.077 2°31.456 248.5 12 245.5 23.1
2001-10-29 11:01:14 51°11.989 2°31.174 247.7 11.9 243.4 23.7
2001-10-29 11:02:14 51°11.899 2°30.893 247.7 11.9 243 -999
2001-10-29 11:03:14 51°11.813 2°30.608 250.3 11.9 245.5 -999
2001-10-29 11:04:14 51°11.732 2°30.321 250 11.9 245.6 -999
2001-10-29 11:05:14 51°11.647 2°30.039 249.2 11.7 243.6 -999
2001-10-29 11:06:14 51°11.562 2°29.756 249.8 11.8 243.7 24.4
2001-10-29 11:07:14 51°11.477 2°29.475 250.2 11.8 243.9 24.4
2001-10-29 11:08:14 51°11.391 2°29.196 250.2 11.7 243.5 25.4
2001-10-29 11:09:14 51°11.322 2°28.907 259.5 11.7 253.9 24.2
2001-10-29 11:10:14 51°11.272 2°28.605 259.8 11.7 254.7 24.7
2001-10-29 11:11:14 51°11.241 2°28.298 269.7 11.9 264.3 25
2001-10-29 11:12:14 51°11.228 2°27.984 269.2 11.8 265.2 24.6
2001-10-29 11:13:14 51°11.214 2°27.672 270.2 11.8 265.8 24.1
2001-10-29 11:14:14 51°11.198 2°27.359 270 11.9 265.4 26.2
2001-10-29 11:15:14 51°11.191 2°27.045 272.3 11.8 269.5 24.8
2001-10-29 11:16:14 51°11.187 2°26.732 272 11.8 268.7 23.4
2001-10-29 11:17:14 51°11.182 2°26.418 271 11.8 268.3 20.3
2001-10-29 11:18:13 51°11.178 2°26.108 271.5 11.8 268.7 17.9
2001-10-29 11:19:14 51°11.175 2°25.791 272 11.7 269.2 15.3
2001-10-29 11:20:14 51°11.176 2°25.482 275.3 11.6 273.1 17.7
2001-10-29 11:21:14 51°11.241 2°25.186 300.2 12.3 301.5 25.2
2001-10-29 11:22:14 51°11.42 2°25.001 342 13.7 343 28.1
2001-10-29 11:23:14 51°11.657 2°25.017 7.2 14.4 7.3 28.1
2001-10-29 11:24:13 51°11.89 2°25.023 357.8 14.2 358.6 27.8
2001-10-29 11:25:13 51°12.13 2°25.058 9.5 14.6 8.5 28.2
2001-10-29 11:26:14 51°12.373 2°25.106 3.3 14.4 5.5 27.9
2001-10-29 11:27:14 51°12.61 2°25.152 10.2 14.4 9.8 29.3
2001-10-29 11:28:14 51°12.837 2°25.301 23.2 14.7 23.7 29.2
2001-10-29 11:29:13 51°13.049 2°25.49 40.2 15.1 37.8 29.8
2001-10-29 11:30:14 51°13.205 2°25.811 65 15 60.9 29.6
2001-10-29 11:31:14 51°13.343 2°26.145 53.3 15.2 50.3 29.2
2001-10-29 11:32:13 51°13.494 2°26.462 62.2 15.3 57.1 29.3
2001-10-29 11:33:13 51°13.633 2°26.8 59.8 15.1 55.7 29
2001-10-29 11:34:14 51°13.783 2°27.14 57.7 15.3 54.3 29.3
2001-10-29 11:35:13 51°13.925 2°27.468 63.2 15.2 56.6 29.1
2001-10-29 11:36:13 51°14.072 2°27.792 58 15.2 53 28.9
2001-10-29 11:37:14 51°14.215 2°28.135 61.7 15.2 57 29.4
2001-10-29 11:38:13 51°14.359 2°28.461 61.3 15.3 55.1 30
2001-10-29 11:39:13 51°14.504 2°28.796 61.3 15.3 56 30
2001-10-29 11:40:14 51°14.652 2°29.134 59.7 15.1 55.9 29.7
2001-10-29 11:41:13 51°14.788 2°29.462 60 15.1 56.4 29.3
2001-10-29 11:42:14 51°14.944 2°29.785 53.8 15.1 49.9 29.5
2001-10-29 11:43:14 51°15.103 2°30.096 54.2 15.1 51.5 29.6
2001-10-29 11:44:14 51°15.257 2°30.417 56.8 15.2 54.6 29.3
2001-10-29 11:45:14 51°15.411 2°30.732 55.2 15.1 52.3 29.4
2001-10-29 11:46:14 51°15.566 2°31.049 53.8 15 52.5 29.1
2001-10-29 11:47:13 51°15.716 2°31.359 55.2 15.2 51.9 28.6
2001-10-29 11:48:14 51°15.871 2°31.683 53.8 15.2 52.7 28.5
2001-10-29 11:49:14 51°16.013 2°32.013 65.7 15 61.6 28.6
2001-10-29 11:50:14 51°16.102 2°32.381 79.5 14.9 74.7 27
2001-10-29 11:51:14 51°16.119 2°32.764 99.3 14.2 95 19.4
2001-10-29 11:52:14 51°16.066 2°33.131 114.7 14.1 109.5 10.3
2001-10-29 11:53:14 51°15.948 2°33.447 140 13.9 133.9 11.7
2001-10-29 11:54:14 51°15.772 2°33.674 139.3 13.7 135.7 13.2
2001-10-29 11:55:14 51°15.625 2°33.947 137.8 13.5 131.5 22.7
2001-10-29 11:56:14 51°15.461 2°34.196 146.7 13.6 140.5 27.1
2001-10-29 11:57:14 51°15.314 2°34.462 122.8 13.6 117 28.5
2001-10-29 11:58:13 51°15.339 2°34.818 72.3 14.3 68.4 28.3
2001-10-29 11:59:14 51°15.493 2°35.131 44.2 15 41.5 28.4
2001-10-29 12:00:14 51°15.687 2°35.373 39 14.9 36.5 29.1
2001-10-29 12:01:14 51°15.875 2°35.634 43 15 39.7 28.7
2001-10-29 12:02:14 51°16.071 2°35.883 39.7 15.3 38.3 29
2001-10-29 12:03:14 51°16.263 2°36.142 41.3 15.3 38.9 28.6
2001-10-29 12:04:14 51°16.455 2°36.397 41.5 14.9 40.1 29.2
2001-10-29 12:05:14 51°16.648 2°36.649 43.5 15.1 41.5 28.8
2001-10-29 12:06:14 51°16.843 2°36.905 41.2 14.9 37.4 29.2
2001-10-29 12:07:14 51°17.059 2°37.07 13.7 14.3 14.4 29.2
2001-10-29 12:08:14 51°17.294 2°37.082 356.5 14.1 359.1 29
2001-10-29 12:09:14 51°17.531 2°37.082 358.3 14.3 0.3 28.8
2001-10-29 12:10:14 51°17.763 2°37.062 357.2 13.8 357.7 25.4
2001-10-29 12:11:14 51°17.995 2°37.042 357.7 13.9 356.7 23.1
2001-10-29 12:12:14 51°18.225 2°37.012 358.2 13.8 356.9 22
2001-10-29 12:13:14 51°18.453 2°36.996 354.7 13.7 355.5 20.8
2001-10-29 12:14:14 51°18.679 2°36.972 355.7 13.6 357 17.9
2001-10-29 12:15:14 51°18.907 2°36.948 355.2 13.8 355.7 20.6
2001-10-29 12:16:14 51°19.136 2°36.932 357.7 14.1 358.6 23.7
2001-10-29 12:17:14 51°19.368 2°36.911 359.8 14.1 359.6 22.2
2001-10-29 12:18:14 51°19.603 2°36.955 16.5 14.3 16 23.1
2001-10-29 12:19:14 51°19.811 2°37.152 46.8 14.7 42.4 23.9
2001-10-29 12:20:14 51°19.975 2°37.44 52.2 14.7 47.1 23.5
2001-10-29 12:21:14 51°20.147 2°37.709 48.8 14.5 45.4 24.9
2001-10-29 12:22:14 51°20.323 2°37.977 48 14.8 44.9 25
2001-10-29 12:23:14 51°20.489 2°38.264 51.3 14.5 45.9 25.9
2001-10-29 12:24:14 51°20.658 2°38.545 53.2 14.6 48.3 25.7
2001-10-29 12:25:14 51°20.821 2°38.834 52.3 14.7 48.3 26.8
2001-10-29 12:26:14 51°20.965 2°39.141 68.3 14.3 61 27.6
2001-10-29 12:27:14 51°21.004 2°39.507 102.7 14 93.7 27.3
2001-10-29 12:28:13 51°20.97 2°39.87 116.2 14.2 105.8 26.6
2001-10-29 12:29:14 51°20.913 2°40.239 106.7 14.2 98.6 26.7
2001-10-29 12:30:13 51°20.876 2°40.602 114 13.8 102.7 28.3
2001-10-29 12:31:14 51°20.811 2°40.968 115.5 13.9 104.9 28.4
2001-10-29 12:32:14 51°20.755 2°41.332 111.7 14.1 102.2 28.6
2001-10-29 12:33:14 51°20.696 2°41.698 114.7 14.1 104.9 24.6
2001-10-29 12:34:14 51°20.636 2°42.062 115.7 14.1 106.2 20.6
2001-10-29 12:35:14 51°20.577 2°42.425 113.3 14.2 105.3 22.9
2001-10-29 12:36:14 51°20.513 2°42.787 111.5 14.1 103.7 24.6
2001-10-29 12:37:14 51°20.457 2°43.145 112.8 14 104.3 27
2001-10-29 12:38:14 51°20.394 2°43.506 112.5 13.9 104.1 29
2001-10-29 12:39:14 51°20.335 2°43.865 112.8 14 105 28.6
2001-10-29 12:40:14 51°20.279 2°44.223 111.5 13.8 103.8 27.9
2001-10-29 12:41:14 51°20.219 2°44.587 113.8 14.2 105.1 27.1
2001-10-29 12:42:14 51°20.163 2°44.951 113.3 14.4 105.2 25.5
2001-10-29 12:43:14 51°20.107 2°45.315 113.5 14.1 104.2 24.4
2001-10-29 12:44:14 51°20.053 2°45.679 113.5 13.9 104.1 15.6
2001-10-29 12:45:14 51°19.994 2°46.039 120 13.9 109.6 16
2001-10-29 12:46:14 51°19.901 2°46.376 122.5 13.6 113.2 17.9
2001-10-29 12:47:14 51°19.79 2°46.695 127.3 13.6 119.6 21.2
2001-10-29 12:48:14 51°19.681 2°47.011 129.5 13.7 119.1 22.9
2001-10-29 12:49:14 51°19.568 2°47.322 131.8 13.4 123.2 23.6
2001-10-29 12:50:14 51°19.445 2°47.626 129.5 13.9 121.3 23.3
2001-10-29 12:51:14 51°19.328 2°47.931 128.2 13.3 119.2 21.7
2001-10-29 12:52:14 51°19.208 2°48.239 131.5 13.4 121.8 19.7
2001-10-29 12:53:14 51°19.089 2°48.541 132.7 13.3 124 17.1
2001-10-29 12:54:14 51°18.97 2°48.845 131.3 13.6 122.8 15
2001-10-29 12:55:14 51°18.849 2°49.143 130.8 13.2 122.2 12.7
2001-10-29 12:56:14 51°18.726 2°49.441 131.2 13.1 122.8 12.1
2001-10-29 12:57:14 51°18.603 2°49.739 130.7 13.5 123.5 14
2001-10-29 12:58:14 51°18.481 2°50.041 129 13.8 121.8 15.6
2001-10-29 12:59:14 51°18.354 2°50.336 134 13.2 127.5 15.9
2001-10-29 13:00:14 51°18.223 2°50.622 133.5 13.4 126.1 15
2001-10-29 13:01:14 51°18.095 2°50.913 130.8 13.1 124 14.3
2001-10-29 13:02:14 51°17.963 2°51.197 133.8 13 125.9 12.9
2001-10-29 13:03:14 51°17.835 2°51.484 134.8 13.3 126.6 11.9
2001-10-29 13:04:14 51°17.705 2°51.76 136 12.8 128.4 11.9
2001-10-29 13:05:14 51°17.556 2°52.011 143.5 13 136.7 12
2001-10-29 13:06:14 51°17.386 2°52.219 154.7 12.8 147.7 11.9
2001-10-29 13:07:14 51°17.208 2°52.416 152.2 13.2 144.9 11.5
2001-10-29 13:08:14 51°17.024 2°52.598 156.7 13.2 150.1 11.5
2001-10-29 13:09:14 51°16.838 2°52.779 156.7 13.1 149.7 11
2001-10-29 13:10:14 51°16.655 2°52.967 156 13.2 147.5 12.9
2001-10-29 13:11:14 51°16.47 2°53.154 155.2 13.2 149.1 13.6
2001-10-29 13:12:14 51°16.286 2°53.339 154.5 13.2 147.6 13.9
2001-10-29 13:13:14 51°16.099 2°53.522 153.8 13 147.9 13.5
2001-10-29 13:14:14 51°15.913 2°53.708 155.5 13.3 147.9 13.1
2001-10-29 13:15:14 51°15.728 2°53.892 154.5 13.1 148.5 12.5
2001-10-29 13:16:14 51°15.539 2°54.073 154.2 12.8 148 11.6
2001-10-29 13:17:14 51°15.35 2°54.251 155.5 13.1 149.5 10.7
2001-10-29 13:18:14 51°15.162 2°54.433 153.7 13.3 147.7 10
2001-10-29 13:19:14 51°14.97 2°54.59 160.2 13 153.8 10.3
2001-10-29 13:20:14 51°14.815 2°54.709 166 8.4 156.2 11.1
2001-10-29 13:21:14 51°14.711 2°54.784 167.7 5.8 154.3 10.8
2001-10-29 13:22:14 51°14.614 2°54.837 167.8 8.7 159.2 10.9
2001-10-29 13:23:14 51°14.455 2°54.956 159.2 11 152.5 11.2
2001-10-29 13:24:14 51°14.321 2°55.146 129.5 10.8 126.6 11.9
2001-10-29 13:25:14 51°14.196 2°55.356 147.7 10.9 144.8 11.8
2001-10-29 13:26:14 51°14.049 2°55.468 159.5 9.3 156.7 11.4
2001-10-29 13:27:14 51°13.92 2°55.563 158.3 7.8 154.1 11.3
2001-10-29 13:28:14 51°13.823 2°55.635 157.3 5.8 154.4 11.4
2001-10-29 13:29:14 51°13.754 2°55.707 137.3 4.5 133.7 10.8
2001-10-29 13:30:14 51°13.717 2°55.786 130.7 3.3 125.1 11.8
2001-10-29 13:31:14 51°13.688 2°55.849 132.7 2.7 126.3 11.7
2001-10-29 13:32:14 51°13.665 2°55.914 117.2 3 114 8.9
2001-10-29 13:33:14 51°13.651 2°55.979 115 2.4 108.5 9
2001-10-29 13:34:14 51°13.644 2°55.999 133.3 0.3 148.6 9
2001-10-29 13:35:14 51°13.639 2°56.004 141.2   205.3 9.2